Time;durP1;ratioP1;P1;durP2;ratioP2;P2;SDS_P1;SDS_P2;PMS_P1;PMS_P2;Temp;Humidity;BMP_temperature;BMP_pressure;BME280_temperature;BME280_humidity;BME280_pressure;Samples;Min_cycle;Max_cycle;Signal;HPM_P1;HPM_P2
2022/01/15 00:00:28;;;;;;;3.77;3.10;;;;;;;4.23;58.63;95132.56;6168003;23;20186;-62
2022/01/15 00:02:54;;;;;;;4.57;3.30;;;;;;;4.32;58.47;95134.50;6168278;23;20178;-62
2022/01/15 00:05:20;;;;;;;5.00;3.87;;;;;;;4.28;58.52;95127.06;6167765;23;20194;-63
2022/01/15 00:07:48;;;;;;;4.73;3.47;;;;;;;4.20;58.65;95122.38;6166983;23;20201;-63
2022/01/15 00:10:20;;;;;;;4.80;3.57;;;;;;;4.26;59.07;95129.75;6168210;23;20279;-63
2022/01/15 00:12:46;;;;;;;4.43;3.43;;;;;;;4.22;59.14;95133.50;6192216;23;20212;-63
2022/01/15 00:15:36;;;;;;;4.73;3.83;;;;;;;4.25;59.10;95143.72;6168663;23;20177;-65
2022/01/15 00:18:11;;;;;;;4.20;3.80;;;;;;;4.23;59.49;95121.34;6168689;23;20218;-64
2022/01/15 00:20:37;;;;;;;4.17;3.43;;;;;;;4.20;59.48;95130.19;6194975;23;20204;-63
2022/01/15 00:23:02;;;;;;;4.37;3.60;;;;;;;4.21;59.50;95124.03;6193768;23;20194;-63
2022/01/15 00:25:30;;;;;;;4.40;3.50;;;;;;;4.13;59.72;95121.97;6168720;23;20212;-65
2022/01/15 00:27:56;;;;;;;3.60;3.27;;;;;;;4.11;59.84;95133.44;6194199;23;20202;-63
2022/01/15 00:30:23;;;;;;;4.60;3.63;;;;;;;4.15;60.16;95147.91;6169384;23;20237;-64
2022/01/15 00:32:49;;;;;;;4.93;3.30;;;;;;;4.19;59.76;95141.53;6168809;23;20281;-65
2022/01/15 00:35:16;;;;;;;5.30;3.50;;;;;;;4.16;60.30;95144.34;6168733;23;20205;-64
2022/01/15 00:37:43;;;;;;;3.93;3.00;;;;;;;4.17;60.32;95161.63;6193695;23;20197;-64
2022/01/15 00:40:13;;;;;;;3.50;3.20;;;;;;;4.13;60.04;95152.38;6192686;23;20220;-64
2022/01/15 00:42:39;;;;;;;4.53;3.40;;;;;;;4.18;60.01;95142.47;6193473;23;20181;-65
2022/01/15 00:45:10;;;;;;;5.23;3.83;;;;;;;4.16;60.35;95155.59;6194602;23;20229;-65
2022/01/15 00:47:35;;;;;;;4.00;3.53;;;;;;;4.17;60.30;95146.88;6193814;23;20213;-65
2022/01/15 00:50:04;;;;;;;5.47;3.83;;;;;;;4.21;60.00;95150.06;6169383;23;20205;-64
2022/01/15 00:52:30;;;;;;;5.40;3.87;;;;;;;4.15;60.30;95153.94;6195222;23;20206;-65
2022/01/15 00:54:55;;;;;;;4.83;3.40;;;;;;;4.09;60.69;95153.53;6192846;23;20299;-64
2022/01/15 00:57:21;;;;;;;4.63;3.77;;;;;;;4.06;60.86;95154.59;6193341;23;20186;-63
2022/01/15 00:59:47;;;;;;;4.00;3.60;;;;;;;4.06;60.60;95148.56;6168916;23;20248;-63
2022/01/15 01:02:13;;;;;;;4.40;3.57;;;;;;;4.07;60.41;95145.84;6192837;23;20202;-66
2022/01/15 01:04:38;;;;;;;5.63;3.53;;;;;;;4.10;60.67;95140.44;6168939;23;20218;-62
2022/01/15 01:07:05;;;;;;;4.70;3.50;;;;;;;4.11;60.47;95154.25;6194588;23;20205;-65
2022/01/15 01:09:56;;;;;;;4.70;3.50;;;;;;;4.10;60.66;95147.41;6195050;23;20189;-63
2022/01/15 01:12:57;;;;;;;4.13;3.60;;;;;;;4.10;60.47;95147.41;6193556;23;20194;-64
2022/01/15 01:23:08;;;;;;;5.57;4.03;;;;;;;4.16;60.27;95165.19;6196173;23;20210;-63
2022/01/15 01:25:44;;;;;;;4.50;3.40;;;;;;;4.16;60.49;95163.41;6170964;23;20253;-62
2022/01/15 01:28:35;;;;;;;3.90;3.50;;;;;;;4.22;60.09;95169.94;6168013;23;20205;-63
2022/01/15 01:31:06;;;;;;;4.00;3.50;;;;;;;4.09;60.60;95146.59;6192389;23;20237;-63
2022/01/15 01:33:41;;;;;;;4.27;3.87;;;;;;;4.08;60.79;95141.47;6170473;23;20178;-63
2022/01/15 01:38:52;;;;;;;4.07;3.40;;;;;;;4.10;60.28;95140.44;6195336;23;20244;-63
2022/01/15 01:41:21;;;;;;;4.73;3.90;;;;;;;4.10;60.48;95129.19;6195829;23;20202;-63
2022/01/15 01:44:08;;;;;;;4.87;4.03;;;;;;;4.05;60.40;95141.69;6196470;23;20202;-63
2022/01/15 01:46:48;;;;;;;4.67;4.17;;;;;;;3.97;60.32;95127.44;6170006;23;20197;-63
2022/01/15 01:49:14;;;;;;;4.53;4.10;;;;;;;3.96;60.88;95138.81;6169725;23;20197;-63
2022/01/15 01:51:41;;;;;;;6.00;4.50;;;;;;;4.03;60.57;95136.59;6170107;23;20178;-63
2022/01/15 01:54:11;;;;;;;4.30;3.80;;;;;;;3.97;60.76;95137.84;6169537;23;20212;-62
2022/01/15 01:56:37;;;;;;;5.33;4.00;;;;;;;4.02;60.42;95136.72;6192978;23;20209;-62
2022/01/15 01:59:05;;;;;;;5.97;4.57;;;;;;;4.00;60.43;95149.81;6170093;23;20290;-62
2022/01/15 02:01:31;;;;;;;4.30;3.90;;;;;;;4.04;60.08;95143.47;6196030;23;20194;-62
2022/01/15 02:03:56;;;;;;;4.63;3.80;;;;;;;4.02;59.85;95127.13;6169836;23;20217;-62
2022/01/15 02:06:22;;;;;;;5.13;4.27;;;;;;;4.02;59.95;95139.31;6169971;23;20246;-61
2022/01/15 02:08:49;;;;;;;5.77;4.07;;;;;;;4.06;59.65;95141.56;6169263;23;20253;-64
2022/01/15 02:11:15;;;;;;;4.47;3.90;;;;;;;4.05;59.70;95146.91;6195457;23;20272;-65
2022/01/15 02:13:44;;;;;;;4.80;3.90;;;;;;;4.05;59.29;95150.31;6195311;23;20198;-62
2022/01/15 02:16:11;;;;;;;5.87;4.70;;;;;;;4.10;59.25;95150.84;6196202;23;20198;-63
2022/01/15 02:18:37;;;;;;;5.17;4.13;;;;;;;4.06;59.15;95141.56;6196503;23;20230;-63
2022/01/15 02:23:35;;;;;;;5.37;4.37;;;;;;;4.06;59.14;95154.59;6196797;23;20270;-62
2022/01/15 02:26:09;;;;;;;5.97;4.20;;;;;;;3.98;59.24;95157.75;6169009;23;20252;-63
2022/01/15 02:28:37;;;;;;;4.53;3.93;;;;;;;3.97;59.36;95152.66;6169624;23;20201;-64
2022/01/15 02:31:07;;;;;;;4.40;3.83;;;;;;;4.03;59.00;95153.97;6194572;23;20202;-66
2022/01/15 02:33:33;;;;;;;5.57;4.70;;;;;;;4.07;59.28;95156.25;6196481;23;20170;-62
2022/01/15 02:36:00;;;;;;;5.13;4.00;;;;;;;3.97;59.30;95155.25;6196261;23;20181;-63
2022/01/15 02:38:25;;;;;;;6.13;4.53;;;;;;;3.97;59.12;95155.25;6169545;23;20194;-63
2022/01/15 02:40:51;;;;;;;4.43;4.03;;;;;;;4.00;59.32;95159.41;6169971;23;20225;-62
2022/01/15 02:43:21;;;;;;;5.90;4.43;;;;;;;4.11;59.00;95183.72;6169318;23;20193;-63
2022/01/15 02:45:57;;;;;;;7.20;4.47;;;;;;;4.07;59.08;95163.25;6169407;23;20198;-63
2022/01/15 02:48:25;;;;;;;5.50;4.30;;;;;;;4.13;58.75;95178.41;6195883;23;20233;-62
2022/01/15 02:50:52;;;;;;;4.60;3.90;;;;;;;4.02;59.20;95162.72;6195907;23;20186;-62
2022/01/15 02:53:18;;;;;;;5.93;5.03;;;;;;;4.01;58.76;95168.84;6169707;23;20250;-63
2022/01/15 02:55:46;;;;;;;5.27;4.73;;;;;;;4.03;58.59;95156.59;6195107;23;20202;-62
2022/01/15 02:58:12;;;;;;;5.90;4.47;;;;;;;3.91;58.79;95158.28;6195298;23;20204;-62
2022/01/15 03:00:38;;;;;;;6.00;5.00;;;;;;;3.92;58.16;95163.38;6194342;23;20186;-62
2022/01/15 03:03:04;;;;;;;5.60;5.00;;;;;;;3.91;58.16;95159.13;6194519;23;20220;-62
2022/01/15 03:05:29;;;;;;;8.70;5.07;;;;;;;3.86;58.48;95173.38;6168083;23;20229;-62
2022/01/15 03:07:55;;;;;;;5.93;5.00;;;;;;;3.85;58.40;95172.56;6194970;23;20205;-62
2022/01/15 03:10:20;;;;;;;6.50;4.57;;;;;;;3.87;58.45;95181.06;6195216;23;20237;-62
2022/01/15 03:12:46;;;;;;;6.10;4.80;;;;;;;3.82;58.60;95183.16;6169136;23;20198;-62
2022/01/15 03:15:18;;;;;;;6.20;4.70;;;;;;;3.87;58.26;95175.84;6194738;23;20181;-62
2022/01/15 03:17:44;;;;;;;8.03;5.30;;;;;;;3.85;57.90;95184.72;6169533;23;20200;-63
2022/01/15 03:20:10;;;;;;;6.20;4.70;;;;;;;3.85;57.46;95174.31;6194049;23;20193;-62
2022/01/15 03:22:35;;;;;;;6.73;5.20;;;;;;;3.81;56.92;95197.09;6168846;23;20201;-63
2022/01/15 03:25:01;;;;;;;7.50;6.33;;;;;;;3.74;56.40;95172.44;6195204;23;20212;-62
2022/01/15 03:27:26;;;;;;;7.93;5.23;;;;;;;3.61;56.86;95163.84;6195375;23;20184;-62
2022/01/15 03:29:52;;;;;;;8.37;5.90;;;;;;;3.79;56.29;95172.13;6170232;23;20178;-62
2022/01/15 03:32:19;;;;;;;6.43;5.70;;;;;;;3.65;56.40;95175.69;6168735;23;20226;-63
2022/01/15 03:34:45;;;;;;;7.77;5.80;;;;;;;3.63;56.42;95185.38;6169016;23;20198;-65
2022/01/15 03:37:11;;;;;;;7.93;6.07;;;;;;;3.60;56.38;95188.19;6193746;23;20228;-62
2022/01/15 03:39:38;;;;;;;8.37;6.30;;;;;;;3.56;56.33;95200.56;6167942;23;20209;-62
2022/01/15 03:42:11;;;;;;;6.90;6.20;;;;;;;3.54;56.72;95198.06;6194134;23;20171;-66
2022/01/15 03:44:37;;;;;;;7.40;5.87;;;;;;;3.54;56.85;95194.63;6192466;23;20198;-63
2022/01/15 03:47:02;;;;;;;7.67;6.37;;;;;;;3.50;56.80;95191.44;6193128;23;20205;-61
2022/01/15 03:49:28;;;;;;;8.57;6.27;;;;;;;3.51;57.16;95198.28;6194246;23;20270;-62
2022/01/15 03:51:53;;;;;;;7.80;5.57;;;;;;;3.51;57.49;95200.88;6168801;23;20209;-62
2022/01/15 03:54:19;;;;;;;7.07;5.93;;;;;;;3.49;57.33;95192.34;6168891;23;20190;-62
2022/01/15 03:56:44;;;;;;;6.90;5.63;;;;;;;3.49;57.64;95207.13;6169103;23;20193;-63
2022/01/15 03:59:10;;;;;;;7.87;5.77;;;;;;;3.59;57.41;95205.56;6168586;23;20201;-61
2022/01/15 04:01:35;;;;;;;6.83;5.60;;;;;;;3.58;57.52;95184.84;6169493;23;20472;-63
2022/01/15 04:04:01;;;;;;;6.90;5.70;;;;;;;3.59;57.76;95208.16;6194721;23;20285;-62
2022/01/15 04:06:26;;;;;;;6.93;5.63;;;;;;;3.62;57.80;95210.53;6168924;23;20178;-62
2022/01/15 04:08:52;;;;;;;8.17;6.37;;;;;;;3.56;58.22;95210.16;6169425;23;20261;-61
2022/01/15 04:11:17;;;;;;;7.33;6.23;;;;;;;3.51;58.23;95237.28;6167762;23;20270;-61
2022/01/15 04:13:42;;;;;;;8.20;6.30;;;;;;;3.59;58.16;95225.53;6192918;23;20210;-63
2022/01/15 04:16:08;;;;;;;6.87;5.63;;;;;;;3.54;58.37;95229.25;6193693;23;20249;-62
2022/01/15 04:18:40;;;;;;;8.40;6.40;;;;;;;3.54;58.18;95250.06;6195117;23;20178;-63
2022/01/15 04:21:05;;;;;;;8.53;6.30;;;;;;;3.47;58.64;95235.81;6169510;23;20182;-67
2022/01/15 04:23:31;;;;;;;8.87;6.23;;;;;;;3.52;58.47;95251.09;6194604;23;20220;-65
2022/01/15 04:25:56;;;;;;;6.93;6.23;;;;;;;3.44;58.75;95264.59;6168115;23;20194;-64
2022/01/15 04:28:22;;;;;;;8.23;7.20;;;;;;;3.47;58.51;95256.59;6192398;23;20202;-62
2022/01/15 04:30:48;;;;;;;8.17;6.83;;;;;;;3.44;58.55;95248.19;6167704;23;20248;-64
2022/01/15 04:33:15;;;;;;;8.57;7.03;;;;;;;3.40;58.52;95267.53;6194216;23;20170;-66
2022/01/15 04:35:40;;;;;;;9.13;7.27;;;;;;;3.36;58.85;95261.69;6167609;23;20194;-65
2022/01/15 04:38:10;;;;;;;9.63;7.23;;;;;;;3.39;58.75;95258.06;6167757;23;20225;-64
2022/01/15 04:40:36;;;;;;;10.03;8.00;;;;;;;3.29;58.59;95258.69;6193541;23;20194;-61
2022/01/15 04:43:02;;;;;;;9.83;8.17;;;;;;;3.29;59.05;95265.66;6191723;23;20208;-62
2022/01/15 04:45:27;;;;;;;9.17;7.57;;;;;;;3.26;58.97;95269.28;6167317;23;20174;-66
2022/01/15 04:47:53;;;;;;;9.07;7.93;;;;;;;3.30;59.17;95265.53;6193642;23;20189;-64
2022/01/15 04:50:20;;;;;;;9.60;8.10;;;;;;;3.35;59.21;95280.00;6193764;23;20200;-61
2022/01/15 04:52:46;;;;;;;10.13;8.30;;;;;;;3.31;59.00;95267.22;6195006;23;20209;-61
2022/01/15 04:55:12;;;;;;;9.37;7.20;;;;;;;3.43;59.10;95278.56;6168662;23;20198;-64
2022/01/15 04:57:39;;;;;;;10.13;7.77;;;;;;;3.44;59.07;95285.41;6194862;23;20178;-62
2022/01/15 05:00:07;;;;;;;8.77;7.87;;;;;;;3.36;59.32;95305.06;6194542;23;20193;-65
2022/01/15 05:02:33;;;;;;;9.97;8.53;;;;;;;3.36;59.68;95279.06;6169035;23;20194;-64
2022/01/15 05:04:59;;;;;;;11.00;8.77;;;;;;;3.38;59.92;95296.22;6168068;23;20283;-62
2022/01/15 05:07:24;;;;;;;11.73;8.97;;;;;;;3.34;59.85;95276.53;6167787;23;20194;-64
2022/01/15 05:09:50;;;;;;;9.73;8.33;;;;;;;3.31;60.35;95284.56;6193106;23;20216;-63
2022/01/15 05:12:49;;;;;;;10.17;8.43;;;;;;;3.32;60.46;95288.84;6194167;23;20184;-66
2022/01/15 05:15:08;;;;;;;9.33;8.33;;;;;;;3.25;60.48;95284.97;6187974;23;20201;-63
2022/01/15 05:17:34;;;;;;;9.70;8.70;;;;;;;3.32;60.49;95309.63;6167458;23;20216;-65
2022/01/15 05:19:59;;;;;;;9.63;8.27;;;;;;;3.30;60.66;95301.09;6167372;23;20197;-63
2022/01/15 05:22:25;;;;;;;10.80;8.90;;;;;;;3.27;60.97;95299.53;6193323;23;20193;-62
2022/01/15 05:24:50;;;;;;;9.93;8.90;;;;;;;3.31;60.92;95305.34;6167874;23;20261;-62
2022/01/15 05:27:16;;;;;;;10.53;8.80;;;;;;;3.27;61.11;95312.53;6193141;23;20194;-65
2022/01/15 05:29:41;;;;;;;10.50;9.40;;;;;;;3.38;60.59;95326.59;6194210;23;20209;-65
2022/01/15 05:32:08;;;;;;;10.93;9.23;;;;;;;3.27;61.06;95303.91;6194888;23;20208;-64
2022/01/15 05:34:33;;;;;;;10.43;8.73;;;;;;;3.40;60.96;95319.53;6169152;23;20194;-66
2022/01/15 05:36:59;;;;;;;13.47;9.90;;;;;;;3.34;60.82;95320.72;6193388;23;20212;-64
2022/01/15 05:39:24;;;;;;;10.47;8.97;;;;;;;3.26;61.03;95310.00;6192372;23;20218;-66
2022/01/15 05:41:50;;;;;;;12.00;9.07;;;;;;;3.23;61.44;95307.63;6168952;23;20229;-63
2022/01/15 05:44:16;;;;;;;9.97;8.97;;;;;;;3.26;61.00;95338.59;6192947;23;20201;-62
2022/01/15 05:46:41;;;;;;;11.97;10.13;;;;;;;3.19;61.37;95319.16;6167962;23;20193;-62
2022/01/15 05:49:07;;;;;;;9.73;8.63;;;;;;;3.08;61.66;95322.44;6166609;23;20261;-63
2022/01/15 05:51:32;;;;;;;11.00;8.80;;;;;;;3.15;61.63;95328.06;6166565;23;20182;-62
2022/01/15 05:54:00;;;;;;;10.60;9.23;;;;;;;3.14;61.51;95319.44;6165625;23;20186;-62
2022/01/15 05:56:25;;;;;;;10.30;8.73;;;;;;;3.11;61.43;95326.63;6165451;23;20202;-62
2022/01/15 05:58:51;;;;;;;10.90;8.50;;;;;;;3.05;61.89;95318.28;6166180;23;20241;-62
2022/01/15 06:01:17;;;;;;;12.23;9.30;;;;;;;3.12;61.76;95333.47;6168406;23;20194;-65
2022/01/15 06:03:43;;;;;;;10.80;9.23;;;;;;;3.16;61.59;95350.53;6168469;23;20197;-62
2022/01/15 06:06:08;;;;;;;12.13;9.63;;;;;;;3.20;61.93;95357.19;6169033;23;20186;-63
2022/01/15 06:08:34;;;;;;;12.33;9.37;;;;;;;3.15;62.02;95351.44;6193563;23;20210;-63
2022/01/15 06:10:59;;;;;;;11.87;9.07;;;;;;;3.20;61.67;95349.38;6193532;23;20209;-62
2022/01/15 06:13:25;;;;;;;12.70;10.60;;;;;;;3.24;61.42;95358.66;6166879;23;20194;-62
2022/01/15 06:15:50;;;;;;;12.07;9.97;;;;;;;3.22;61.60;95344.94;6166871;23;20194;-62
2022/01/15 06:18:16;;;;;;;11.20;9.83;;;;;;;3.11;61.95;95361.22;6192746;23;20233;-62
2022/01/15 06:20:41;;;;;;;11.03;9.60;;;;;;;3.18;62.19;95359.03;6193295;23;20209;-62
2022/01/15 06:23:07;;;;;;;12.87;10.03;;;;;;;3.09;62.09;95356.09;6167933;23;20209;-64
2022/01/15 06:25:32;;;;;;;10.80;9.70;;;;;;;3.11;62.30;95379.41;6169257;23;20200;-62
2022/01/15 06:27:58;;;;;;;11.77;10.47;;;;;;;3.08;62.16;95375.25;6169208;23;20255;-62
2022/01/15 06:30:23;;;;;;;11.77;9.50;;;;;;;3.04;62.30;95357.34;6169494;23;20248;-62
2022/01/15 06:32:49;;;;;;;13.30;10.43;;;;;;;2.94;62.83;95377.88;6168758;23;20194;-62
2022/01/15 06:35:17;;;;;;;10.80;9.70;;;;;;;2.93;62.81;95381.41;6168037;23;20207;-61
2022/01/15 06:37:44;;;;;;;13.73;10.27;;;;;;;2.95;63.07;95387.34;6167752;23;20194;-62
2022/01/15 06:40:10;;;;;;;14.43;10.67;;;;;;;2.88;63.13;95393.84;6169948;23;20198;-63
2022/01/15 06:42:37;;;;;;;12.70;10.40;;;;;;;2.94;62.94;95387.41;6170531;23;20205;-63
2022/01/15 06:45:04;;;;;;;12.00;10.10;;;;;;;2.91;62.94;95403.19;6195178;23;20210;-62
2022/01/15 06:47:29;;;;;;;12.43;10.80;;;;;;;2.94;63.06;95403.84;6194068;23;20201;-61
2022/01/15 06:49:55;;;;;;;13.07;10.67;;;;;;;2.92;62.95;95415.28;6168224;23;20200;-67
2022/01/15 06:52:21;;;;;;;12.33;9.97;;;;;;;2.89;63.05;95408.50;6192473;23;20250;-63
2022/01/15 06:54:47;;;;;;;16.93;10.93;;;;;;;2.90;62.92;95401.53;6167875;23;20202;-63
2022/01/15 06:57:13;;;;;;;13.13;10.63;;;;;;;2.96;62.80;95408.94;6169029;23;20240;-62
2022/01/15 06:59:38;;;;;;;14.40;11.00;;;;;;;2.96;62.74;95403.75;6169957;23;20202;-62
2022/01/15 07:02:05;;;;;;;12.67;10.97;;;;;;;3.00;63.00;95398.28;6168946;23;20194;-62
2022/01/15 07:04:31;;;;;;;11.83;10.30;;;;;;;3.00;62.64;95393.06;6168689;23;20262;-64
2022/01/15 07:06:56;;;;;;;11.67;10.40;;;;;;;3.04;62.35;95404.09;6194645;23;20198;-64
2022/01/15 07:09:22;;;;;;;12.77;10.97;;;;;;;3.09;62.63;95413.25;6164601;23;20217;-63
2022/01/15 07:11:49;;;;;;;12.70;10.23;;;;;;;3.20;62.13;95424.75;6163684;23;20222;-63
2022/01/15 07:14:14;;;;;;;13.73;10.53;;;;;;;3.18;62.40;95422.28;6163374;23;20213;-63
2022/01/15 07:16:40;;;;;;;12.37;10.50;;;;;;;3.27;62.02;95426.03;6164618;23;20205;-62
2022/01/15 07:19:05;;;;;;;13.37;10.37;;;;;;;3.43;61.76;95421.53;6163864;23;20210;-63
2022/01/15 07:21:31;;;;;;;11.93;10.43;;;;;;;3.47;61.52;95422.97;6164392;23;20182;-63
2022/01/15 07:23:57;;;;;;;13.10;10.70;;;;;;;3.55;61.38;95435.50;6164531;23;20186;-64
2022/01/15 07:26:22;;;;;;;14.27;11.07;;;;;;;3.60;60.70;95433.44;6164125;23;20203;-64
2022/01/15 07:28:48;;;;;;;12.00;9.53;;;;;;;3.52;60.99;95446.09;6164748;23;20251;-63
2022/01/15 07:31:14;;;;;;;12.47;10.83;;;;;;;3.58;60.89;95456.09;6188211;23;20202;-63
2022/01/15 07:33:39;;;;;;;13.70;10.17;;;;;;;3.57;61.04;95448.41;6164344;23;20186;-62
2022/01/15 07:36:05;;;;;;;13.50;10.60;;;;;;;3.64;60.65;95454.91;6164259;23;20181;-63
2022/01/15 07:38:31;;;;;;;11.50;10.30;;;;;;;3.57;61.04;95470.03;6164229;23;20210;-64
2022/01/15 07:40:58;;;;;;;13.07;11.00;;;;;;;3.53;60.93;95469.41;6163062;23;20203;-64
2022/01/15 07:43:24;;;;;;;11.47;10.33;;;;;;;3.71;60.34;95464.78;6163191;23;20202;-63
2022/01/15 07:45:50;;;;;;;12.63;10.63;;;;;;;3.68;60.61;95462.38;6163917;23;20198;-63
2022/01/15 07:48:16;;;;;;;13.60;10.83;;;;;;;3.63;60.32;95450.59;6188423;23;20178;-64
2022/01/15 07:50:41;;;;;;;12.73;10.80;;;;;;;3.54;60.72;95455.47;6164559;23;20202;-61
2022/01/15 07:53:07;;;;;;;11.70;10.50;;;;;;;3.62;60.81;95461.94;6163695;23;20205;-62
2022/01/15 07:55:33;;;;;;;12.27;10.67;;;;;;;3.65;60.28;95451.34;6164242;23;20202;-63
2022/01/15 07:57:58;;;;;;;14.00;12.13;;;;;;;3.78;60.29;95470.44;6164671;23;20202;-63
2022/01/15 08:00:24;;;;;;;12.17;10.77;;;;;;;3.72;60.10;95478.63;6164669;23;20174;-62
2022/01/15 08:02:49;;;;;;;14.40;12.00;;;;;;;3.73;60.13;95494.13;6163957;23;20186;-63
2022/01/15 08:05:15;;;;;;;13.83;12.07;;;;;;;3.73;59.92;95480.28;6137943;23;20206;-62
2022/01/15 08:07:42;;;;;;;15.40;12.43;;;;;;;3.69;60.06;95476.25;6164125;23;20195;-61
2022/01/15 08:10:08;;;;;;;15.40;12.73;;;;;;;3.63;60.26;95507.81;6163345;23;20222;-64
2022/01/15 08:12:41;;;;;;;14.37;11.80;;;;;;;3.68;60.00;95504.00;6138735;23;20187;-66
2022/01/15 08:15:07;;;;;;;15.27;12.93;;;;;;;3.71;59.83;95515.97;6136089;23;20209;-64
2022/01/15 08:17:32;;;;;;;15.23;12.53;;;;;;;3.67;60.10;95509.31;6138765;23;20206;-65
2022/01/15 08:19:58;;;;;;;14.33;12.77;;;;;;;3.58;60.21;95517.69;6138155;23;20225;-63
2022/01/15 08:22:23;;;;;;;13.70;12.17;;;;;;;3.61;60.21;95533.94;6132376;23;20203;-63
2022/01/15 08:24:50;;;;;;;14.93;12.90;;;;;;;3.65;59.83;95529.38;6114746;23;20258;-62
2022/01/15 08:27:16;;;;;;;13.30;11.90;;;;;;;3.65;59.84;95525.00;6139822;23;20214;-67
2022/01/15 08:29:41;;;;;;;14.97;12.90;;;;;;;3.75;59.20;95523.47;6138289;23;20253;-64
2022/01/15 08:32:07;;;;;;;16.07;12.63;;;;;;;3.62;59.70;95525.19;6164147;23;20209;-63
2022/01/15 08:34:32;;;;;;;14.10;11.47;;;;;;;3.67;59.39;95527.50;6138871;23;20310;-64
2022/01/15 08:36:58;;;;;;;16.37;13.23;;;;;;;3.77;59.29;95531.19;6138416;23;20206;-63
2022/01/15 08:39:23;;;;;;;15.10;13.10;;;;;;;4.02;58.84;95534.81;6139056;23;20190;-63
2022/01/15 08:41:49;;;;;;;14.43;11.87;;;;;;;4.07;58.05;95523.19;6139230;23;20202;-62
2022/01/15 08:44:16;;;;;;;14.03;12.07;;;;;;;4.06;58.14;95525.88;6164590;23;20194;-64
2022/01/15 08:46:43;;;;;;;14.43;12.10;;;;;;;4.11;58.07;95552.44;6139533;23;20194;-64
2022/01/15 08:49:08;;;;;;;16.20;12.60;;;;;;;4.20;58.14;95547.47;6162392;23;20202;-63
2022/01/15 08:51:34;;;;;;;14.47;12.37;;;;;;;4.34;57.32;95559.59;6138389;23;20233;-64
2022/01/15 08:53:59;;;;;;;13.30;11.90;;;;;;;4.04;57.60;95553.78;6139207;23;20189;-63
2022/01/15 08:56:25;;;;;;;15.00;11.90;;;;;;;4.14;57.51;95567.84;6138188;23;20262;-61
2022/01/15 08:58:50;;;;;;;13.73;11.70;;;;;;;3.82;57.92;95554.31;6138889;23;20258;-61
2022/01/15 09:01:16;;;;;;;14.17;11.57;;;;;;;3.88;58.21;95551.31;6138520;23;20210;-61
2022/01/15 09:03:42;;;;;;;15.63;12.47;;;;;;;4.03;57.60;95557.31;6137600;23;20199;-63
2022/01/15 09:06:09;;;;;;;13.60;11.67;;;;;;;4.11;57.58;95560.25;6163686;23;20190;-63
2022/01/15 09:08:34;;;;;;;14.40;11.90;;;;;;;4.13;57.36;95563.59;6162986;23;20279;-66
2022/01/15 09:11:00;;;;;;;12.60;10.67;;;;;;;4.02;57.76;95564.28;6138643;23;20206;-62
2022/01/15 09:13:25;;;;;;;16.07;11.77;;;;;;;3.91;57.94;95567.56;6138811;23;20209;-62
2022/01/15 09:15:51;;;;;;;16.70;10.93;;;;;;;3.78;57.97;95564.06;6138516;23;20266;-62
2022/01/15 09:18:17;;;;;;;14.53;12.00;;;;;;;3.90;58.15;95575.47;6139172;23;20250;-64
2022/01/15 09:20:43;;;;;;;15.00;11.67;;;;;;;3.93;58.20;95575.28;6164201;23;20226;-63
2022/01/15 09:23:09;;;;;;;15.17;12.07;;;;;;;3.95;57.63;95558.63;6136530;23;20198;-64
2022/01/15 09:25:35;;;;;;;14.40;11.20;;;;;;;4.09;57.49;95567.31;6160322;23;20201;-64
2022/01/15 09:30:44;;;;;;;13.20;10.93;;;;;;;4.61;55.40;95554.31;6162829;23;20218;-64
2022/01/15 09:33:10;;;;;;;13.73;11.47;;;;;;;4.61;55.01;95546.50;6134812;23;20178;-64
2022/01/15 09:35:37;;;;;;;12.00;10.57;;;;;;;4.77;54.66;95542.88;6138280;23;20301;-67
2022/01/15 09:38:03;;;;;;;14.67;11.07;;;;;;;4.80;55.02;95545.28;6166298;23;20203;-66
2022/01/15 09:40:28;;;;;;;14.50;11.70;;;;;;;4.51;55.46;95549.81;6140271;23;20253;-63
2022/01/15 09:42:55;;;;;;;13.13;11.23;;;;;;;4.47;55.77;95561.41;6140902;23;20203;-63
2022/01/15 09:45:23;;;;;;;11.50;10.07;;;;;;;4.35;55.39;95544.78;6140292;23;20190;-63
2022/01/15 09:48:00;;;;;;;13.00;10.53;;;;;;;4.60;54.65;95538.81;6165885;23;20217;-65
2022/01/15 09:50:28;;;;;;;12.03;9.97;;;;;;;4.62;54.85;95539.53;6164626;23;20205;-64
2022/01/15 09:52:54;;;;;;;12.47;9.90;;;;;;;4.62;54.88;95542.97;6165306;23;20234;-65
2022/01/15 09:55:21;;;;;;;13.83;10.30;;;;;;;4.68;54.52;95546.94;6140304;23;20205;-65
2022/01/15 09:57:48;;;;;;;13.23;9.83;;;;;;;4.40;54.91;95546.16;6165052;23;20195;-64
2022/01/15 10:00:15;;;;;;;12.50;9.70;;;;;;;4.50;54.62;95550.78;6140466;23;20183;-65
2022/01/15 10:02:43;;;;;;;12.40;9.63;;;;;;;4.39;54.47;95549.72;6163792;23;20253;-62
2022/01/15 10:05:09;;;;;;;10.40;9.23;;;;;;;4.49;54.27;95555.16;6163358;23;20210;-66
2022/01/15 10:07:35;;;;;;;11.90;9.47;;;;;;;4.39;54.24;95557.50;6164030;23;20210;-63
2022/01/15 10:10:16;;;;;;;13.30;9.97;;;;;;;4.46;54.37;95563.13;6138949;23;20215;-63
2022/01/15 10:12:43;;;;;;;12.33;10.13;;;;;;;4.48;53.84;95547.44;6138398;23;20189;-65
2022/01/15 10:15:10;;;;;;;13.80;10.77;;;;;;;4.46;53.99;95555.31;6163642;23;20209;-64
2022/01/15 10:17:38;;;;;;;10.87;9.33;;;;;;;4.55;53.71;95561.72;6137991;23;20195;-65
2022/01/15 10:20:08;;;;;;;12.37;10.23;;;;;;;4.76;53.41;95555.06;6164085;23;20213;-65
2022/01/15 10:22:34;;;;;;;10.93;9.80;;;;;;;4.97;52.89;95547.59;6164491;23;20206;-64
2022/01/15 10:25:14;;;;;;;12.77;10.10;;;;;;;5.16;52.65;95546.28;6139182;23;20211;-64
2022/01/15 10:27:42;;;;;;;11.43;9.67;;;;;;;5.46;51.54;95540.75;6165752;23;20237;-64
2022/01/15 10:30:25;;;;;;;14.37;9.63;;;;;;;5.73;51.02;95543.16;6138256;23;20183;-64
2022/01/15 10:33:01;;;;;;;14.97;11.23;;;;;;;5.89;50.53;95529.84;6138460;23;20194;-64
2022/01/15 10:35:40;;;;;;;12.37;9.47;;;;;;;6.31;49.52;95535.56;6137395;23;20241;-63
2022/01/15 10:38:15;;;;;;;10.67;9.53;;;;;;;5.85;50.36;95523.19;6138066;23;20262;-64
2022/01/15 10:40:43;;;;;;;11.33;9.57;;;;;;;5.85;50.67;95521.41;6163409;23;20190;-64
2022/01/15 10:43:11;;;;;;;13.60;10.10;;;;;;;5.56;51.04;95533.09;6139655;23;20198;-64
2022/01/15 10:46:06;;;;;;;13.47;10.20;;;;;;;5.17;52.17;95527.94;6165009;23;20291;-65
2022/01/15 10:48:37;;;;;;;11.30;9.43;;;;;;;5.37;51.71;95528.34;6023736;23;20193;-63
2022/01/15 10:51:07;;;;;;;14.23;10.27;;;;;;;5.85;50.00;95531.84;6047052;23;20189;-64
2022/01/15 10:54:01;;;;;;;10.33;9.10;;;;;;;6.19;48.51;95530.25;6046614;23;20205;-64
2022/01/15 10:56:27;;;;;;;13.23;9.43;;;;;;;5.91;49.01;95531.41;6043393;23;20208;-64
2022/01/15 10:59:08;;;;;;;12.90;8.87;;;;;;;5.79;49.37;95528.84;6045489;23;20209;-63
2022/01/15 11:01:33;;;;;;;12.77;8.83;;;;;;;5.55;49.84;95529.66;6047556;23;20213;-66
2022/01/15 11:03:59;;;;;;;9.73;8.17;;;;;;;5.52;50.01;95532.47;6046563;23;20212;-64
2022/01/15 11:06:38;;;;;;;12.53;9.03;;;;;;;6.00;49.10;95537.78;6023795;23;20205;-67
2022/01/15 11:09:03;;;;;;;10.13;8.80;;;;;;;5.79;49.12;95531.47;6023253;23;20212;-64
2022/01/15 11:11:32;;;;;;;10.90;8.77;;;;;;;5.75;49.35;95525.63;6046650;23;20276;-64
2022/01/15 11:13:58;;;;;;;11.90;8.93;;;;;;;5.86;48.89;95530.91;6046464;23;20209;-63
2022/01/15 11:16:24;;;;;;;11.90;9.37;;;;;;;5.92;49.23;95524.41;6046551;23;20269;-64
2022/01/15 11:18:54;;;;;;;10.13;8.30;;;;;;;6.04;48.45;95528.78;6045219;23;20197;-65
2022/01/15 11:21:22;;;;;;;10.77;8.53;;;;;;;6.18;48.12;95514.72;6046973;23;20279;-65
2022/01/15 11:23:50;;;;;;;12.77;9.30;;;;;;;6.63;46.94;95510.47;6029500;23;20206;-61
2022/01/15 11:26:24;;;;;;;9.87;8.43;;;;;;;6.93;45.45;95506.47;6163463;23;20209;-64
2022/01/15 11:28:55;;;;;;;9.30;8.23;;;;;;;6.99;45.33;95506.00;6163177;23;20198;-63
2022/01/15 11:31:25;;;;;;;10.03;8.37;;;;;;;7.47;44.62;95513.59;6162933;23;20202;-66
2022/01/15 11:33:53;;;;;;;12.83;8.87;;;;;;;7.79;43.59;95494.50;6164981;23;20194;-64
2022/01/15 11:36:32;;;;;;;12.70;9.73;;;;;;;7.58;43.53;95511.91;6164452;23;20190;-63
2022/01/15 11:38:59;;;;;;;10.87;9.13;;;;;;;7.12;44.58;95507.69;6165241;23;20253;-63
2022/01/15 11:41:28;;;;;;;10.03;8.53;;;;;;;6.54;46.08;95500.69;6138164;23;20264;-67
2022/01/15 11:43:53;;;;;;;11.17;8.80;;;;;;;6.58;45.93;95502.13;6164843;23;20401;-63
2022/01/15 11:46:41;;;;;;;11.00;9.07;;;;;;;6.39;46.33;95507.09;6160625;23;20250;-63
2022/01/15 11:49:28;;;;;;;10.97;9.17;;;;;;;6.40;46.34;95501.72;6162381;23;20213;-61
2022/01/15 11:51:56;;;;;;;11.07;8.60;;;;;;;6.42;46.33;95504.25;6163419;23;20225;-62